Latitude: N 50° 09' 49" Longitude: W 05° 11' 53" Elevation: 168m ASL

There are 9 visitors online

Adverts
Latest METAR Data

Below are the latest METARs ("Meteorological Services to Airmen Reports"), for RNAS Culdrose and Newquay Airport.

EGDR - RNAS Culdrose
Distance from station: SW 6mi, 9km
Updated: Fri, 14-Dec-2018 2:50pm GMT
Overcast
Overcast
 Wind from SE
Wind: SE 20 mph , 31 km/h
Temperature: 45°F , 7°C
Wind Chill: 37°F , 3°C
Dew Point: 39°F , 4°C
Humidity: 81%
Barometer: 30.03 inHg , 1017 hPa
Clouds: Overcast
Visibility: 6 miles , 10 km
Cloud details: Overcast 1500 ft
2018/12/14 14:50 EGDR 141450Z AUTO 13017KT 9999 // OVC015/// 07/04 Q1017
EGHQ - Newquay Airport
Distance from station: NE 21mi, 34km
Updated: Fri, 14-Dec-2018 2:50pm GMT
Mostly Cloudy
Mostly Cloudy
 Wind from SSE
Wind: SSE 21 mph , 33 km/h
Temperature: 43°F , 6°C
Wind Chill: 34°F , 1°C
Dew Point: 37°F , 3°C
Humidity: 81%
Barometer: 30.03 inHg , 1017 hPa
Clouds: Mostly Cloudy
Visibility: 6 miles , 10 km
Cloud details: Mostly Cloudy 1800 ft
2018/12/14 14:50 EGHQ 141450Z 15018KT 9999 BKN018 06/03 Q1017
 
EGTE - Exeter Airport
Distance from station: ENE 88mi, 141km
Updated: Fri, 14-Dec-2018 2:50pm GMT
Partly Cloudy
Partly Cloudy
 Wind from SSE
Wind: SSE 13 mph , 20 km/h
Temperature: 43°F , 6°C
Wind Chill: 36°F , 2°C
Dew Point: 32°F , 0°C
Humidity: 66%
Barometer: 30.12 inHg , 1020 hPa
Clouds: Partly Cloudy
Visibility: 6 miles , 10 km
Cloud details: Few Clouds 2800 ft
Partly Cloudy 3500 ft
2018/12/14 14:50 EGTE 141450Z 16011KT 9999 FEW028 SCT035 06/00 Q1020
EGHE - St Marys, IOS
Distance from station: W 51mi, 82km
Updated: Fri, 14-Dec-2018 2:50pm GMT
Partly Cloudy
Partly Cloudy
 Wind from SSE
Wind: SSE 22 mph , 35 km/h
Temperature: 50°F , 10°C
Wind Chill: 43°F , 6°C
Dew Point: 50°F , 10°C
Humidity: 100%
Barometer: 29.97 inHg , 1015 hPa
Clouds: Partly Cloudy
Visibility: 6 miles , 10 km
Cloud details: Few Clouds 400 ft
Partly Cloudy 700 ft
2018/12/14 14:50 EGHE 141450Z 15019KT 9999 FEW004 SCT007 10/10 Q1015

Metar display script from Saratoga-Weather.org

UK - WEATHER STATION TOPSITES - UK World Weather Websites

This is a private weather station, never base important decisions or events on data from this weather station. Although every effort has been made to make the data as accurate as possible it does not meet MetOffice standards. It is proved as a guide of local weather conditions. We accept no liability for any loss which may arise from use of the data.

Copyright © Carnkie Weather 2009 - 2018.